sensor_id;sensor_type;location;lat;lon;timestamp;pressure;altitude;pressure_sealevel;temperature;humidity
19789;BME280;10054;59.332;18.244;2023-06-05T00:01:23;101583.64;;;9.54;89.25
19789;BME280;10054;59.332;18.244;2023-06-05T00:03:51;101583.18;;;9.55;89.34
19789;BME280;10054;59.332;18.244;2023-06-05T00:06:20;101575.27;;;9.55;89.36
19789;BME280;10054;59.332;18.244;2023-06-05T00:08:49;101579.63;;;9.56;89.39
19789;BME280;10054;59.332;18.244;2023-06-05T00:11:18;101583.44;;;9.59;89.26
19789;BME280;10054;59.332;18.244;2023-06-05T00:13:47;101585.09;;;9.62;89.27
19789;BME280;10054;59.332;18.244;2023-06-05T00:16:16;101588.97;;;9.63;89.18
19789;BME280;10054;59.332;18.244;2023-06-05T00:18:45;101588.45;;;9.65;89.16
19789;BME280;10054;59.332;18.244;2023-06-05T00:21:14;101585.32;;;9.66;88.99
19789;BME280;10054;59.332;18.244;2023-06-05T00:23:47;101581.30;;;9.67;88.93
19789;BME280;10054;59.332;18.244;2023-06-05T00:26:16;101589.20;;;9.67;88.82
19789;BME280;10054;59.332;18.244;2023-06-05T00:28:47;101587.89;;;9.67;88.79
19789;BME280;10054;59.332;18.244;2023-06-05T00:31:15;101585.25;;;9.67;88.76
19789;BME280;10054;59.332;18.244;2023-06-05T00:33:46;101586.11;;;9.68;88.75
19789;BME280;10054;59.332;18.244;2023-06-05T00:36:15;101585.65;;;9.68;88.81
19789;BME280;10054;59.332;18.244;2023-06-05T00:38:45;101587.75;;;9.70;88.81
19789;BME280;10054;59.332;18.244;2023-06-05T00:41:14;101587.30;;;9.71;88.89
19789;BME280;10054;59.332;18.244;2023-06-05T00:43:43;101583.20;;;9.74;88.90
19789;BME280;10054;59.332;18.244;2023-06-05T00:46:12;101586.30;;;9.73;88.82
19789;BME280;10054;59.332;18.244;2023-06-05T00:48:42;101581.50;;;9.73;88.85
19789;BME280;10054;59.332;18.244;2023-06-05T00:51:12;101585.91;;;9.72;88.78
19789;BME280;10054;59.332;18.244;2023-06-05T00:53:44;101587.30;;;9.71;88.78
19789;BME280;10054;59.332;18.244;2023-06-05T00:56:13;101580.25;;;9.71;88.89
19789;BME280;10054;59.332;18.244;2023-06-05T00:58:43;101575.90;;;9.70;88.95
19789;BME280;10054;59.332;18.244;2023-06-05T01:01:12;101578.53;;;9.70;89.04
19789;BME280;10054;59.332;18.244;2023-06-05T01:03:44;101571.95;;;9.70;89.17
19789;BME280;10054;59.332;18.244;2023-06-05T01:06:13;101574.52;;;9.72;89.15
19789;BME280;10054;59.332;18.244;2023-06-05T01:08:44;101571.95;;;9.70;89.29
19789;BME280;10054;59.332;18.244;2023-06-05T01:11:34;101566.67;;;9.70;89.26
19789;BME280;10054;59.332;18.244;2023-06-05T01:14:06;101572.80;;;9.71;89.41
19789;BME280;10054;59.332;18.244;2023-06-05T01:16:23;101558.70;;;9.72;89.42
19789;BME280;10054;59.332;18.244;2023-06-05T01:18:54;101556.92;;;9.72;89.50
19789;BME280;10054;59.332;18.244;2023-06-05T01:21:25;101548.17;;;9.72;89.50
19789;BME280;10054;59.332;18.244;2023-06-05T01:23:55;101546.84;;;9.72;89.55
19789;BME280;10054;59.332;18.244;2023-06-05T01:26:28;101546.39;;;9.72;89.64
19789;BME280;10054;59.332;18.244;2023-06-05T01:28:56;101549.48;;;9.72;89.80
19789;BME280;10054;59.332;18.244;2023-06-05T01:31:26;101546.39;;;9.72;89.87
19789;BME280;10054;59.332;18.244;2023-06-05T01:34:00;101549.09;;;9.71;89.84
19789;BME280;10054;59.332;18.244;2023-06-05T01:36:32;101548.30;;;9.69;89.90
19789;BME280;10054;59.332;18.244;2023-06-05T01:39:02;101549.16;;;9.69;89.98
19789;BME280;10054;59.332;18.244;2023-06-05T01:41:33;101552.19;;;9.70;90.08
19789;BME280;10054;59.332;18.244;2023-06-05T01:44:02;101554.49;;;9.68;90.05
19789;BME280;10054;59.332;18.244;2023-06-05T01:46:32;101548.93;;;9.65;90.12
19789;BME280;10054;59.332;18.244;2023-06-05T01:49:03;101546.43;;;9.62;90.23
19789;BME280;10054;59.332;18.244;2023-06-05T01:51:33;101550.52;;;9.59;90.20
19789;BME280;10054;59.332;18.244;2023-06-05T01:54:03;101547.48;;;9.58;90.32
19789;BME280;10054;59.332;18.244;2023-06-05T01:56:33;101550.58;;;9.58;90.39
19789;BME280;10054;59.332;18.244;2023-06-05T01:59:05;101546.95;;;9.60;90.46
19789;BME280;10054;59.332;18.244;2023-06-05T02:01:34;101548.20;;;9.62;90.46
19789;BME280;10054;59.332;18.244;2023-06-05T02:04:03;101545.91;;;9.64;90.51
19789;BME280;10054;59.332;18.244;2023-06-05T02:06:33;101544.88;;;9.67;90.55
19789;BME280;10054;59.332;18.244;2023-06-05T02:09:04;101543.03;;;9.69;90.63
19789;BME280;10054;59.332;18.244;2023-06-05T02:11:32;101542.11;;;9.70;90.68
19789;BME280;10054;59.332;18.244;2023-06-05T02:14:01;101545.07;;;9.72;90.64
19789;BME280;10054;59.332;18.244;2023-06-05T02:16:31;101551.13;;;9.74;90.61
19789;BME280;10054;59.332;18.244;2023-06-05T02:19:00;101548.89;;;9.75;90.51
19789;BME280;10054;59.332;18.244;2023-06-05T02:21:34;101543.55;;;9.77;90.47
19789;BME280;10054;59.332;18.244;2023-06-05T02:24:03;101547.04;;;9.77;90.52
19789;BME280;10054;59.332;18.244;2023-06-05T02:26:32;101547.30;;;9.81;90.42
19789;BME280;10054;59.332;18.244;2023-06-05T02:29:01;101551.58;;;9.84;90.34
19789;BME280;10054;59.332;18.244;2023-06-05T02:31:30;101544.85;;;9.87;90.30
19789;BME280;10054;59.332;18.244;2023-06-05T02:33:59;101545.64;;;9.89;90.27
19789;BME280;10054;59.332;18.244;2023-06-05T02:36:28;101546.29;;;9.94;90.29
19789;BME280;10054;59.332;18.244;2023-06-05T02:38:58;101540.20;;;10.02;90.29
19789;BME280;10054;59.332;18.244;2023-06-05T02:41:27;101544.59;;;10.12;90.34
19789;BME280;10054;59.332;18.244;2023-06-05T02:43:56;101544.57;;;10.41;90.99
19789;BME280;10054;59.332;18.244;2023-06-05T02:46:27;101544.17;;;10.95;90.67
19789;BME280;10054;59.332;18.244;2023-06-05T02:48:56;101536.70;;;11.46;88.05
19789;BME280;10054;59.332;18.244;2023-06-05T02:51:26;101540.88;;;11.84;86.83
19789;BME280;10054;59.332;18.244;2023-06-05T02:53:55;101542.04;;;12.43;84.86
19789;BME280;10054;59.332;18.244;2023-06-05T02:56:24;101516.66;;;13.01;81.40
19789;BME280;10054;59.332;18.244;2023-06-05T02:58:57;101525.43;;;13.68;78.08
19789;BME280;10054;59.332;18.244;2023-06-05T03:01:26;101529.55;;;14.22;74.94
19789;BME280;10054;59.332;18.244;2023-06-05T03:03:56;101527.98;;;14.61;72.28
19789;BME280;10054;59.332;18.244;2023-06-05T03:06:26;101528.39;;;14.82;70.56
19789;BME280;10054;59.332;18.244;2023-06-05T03:08:57;101533.83;;;14.93;69.25
19789;BME280;10054;59.332;18.244;2023-06-05T03:11:27;101533.83;;;14.93;68.78
19789;BME280;10054;59.332;18.244;2023-06-05T03:13:57;101532.80;;;14.88;69.10
19789;BME280;10054;59.332;18.244;2023-06-05T03:16:27;101530.60;;;14.75;68.78
19789;BME280;10054;59.332;18.244;2023-06-05T03:18:57;101527.80;;;14.64;70.14
19789;BME280;10054;59.332;18.244;2023-06-05T03:21:27;101529.41;;;14.59;70.39
19789;BME280;10054;59.332;18.244;2023-06-05T03:23:55;101530.95;;;14.56;70.43
19789;BME280;10054;59.332;18.244;2023-06-05T03:26:25;101530.66;;;14.54;70.71
19789;BME280;10054;59.332;18.244;2023-06-05T03:28:54;101533.59;;;14.56;70.75
19789;BME280;10054;59.332;18.244;2023-06-05T03:31:23;101527.98;;;14.61;71.14
19789;BME280;10054;59.332;18.244;2023-06-05T03:33:52;101535.46;;;14.68;70.83
19789;BME280;10054;59.332;18.244;2023-06-05T03:36:21;101532.58;;;14.78;70.48
19789;BME280;10054;59.332;18.244;2023-06-05T03:38:50;101528.23;;;14.90;70.03
19789;BME280;10054;59.332;18.244;2023-06-05T03:41:19;101524.39;;;15.01;69.63
19789;BME280;10054;59.332;18.244;2023-06-05T03:43:48;101522.34;;;15.12;69.33
19789;BME280;10054;59.332;18.244;2023-06-05T03:46:18;101518.86;;;15.24;68.59
19789;BME280;10054;59.332;18.244;2023-06-05T03:48:49;101520.69;;;15.36;68.58
19789;BME280;10054;59.332;18.244;2023-06-05T03:51:20;101517.63;;;15.55;67.74
19789;BME280;10054;59.332;18.244;2023-06-05T03:53:50;101520.55;;;15.70;67.04
19789;BME280;10054;59.332;18.244;2023-06-05T03:56:20;101520.81;;;15.86;66.70
19789;BME280;10054;59.332;18.244;2023-06-05T03:58:50;101519.62;;;16.02;66.12
19789;BME280;10054;59.332;18.244;2023-06-05T04:01:19;101518.91;;;16.19;65.70
19789;BME280;10054;59.332;18.244;2023-06-05T04:03:49;101517.06;;;16.32;65.29
19789;BME280;10054;59.332;18.244;2023-06-05T04:06:19;101517.25;;;16.47;64.60
19789;BME280;10054;59.332;18.244;2023-06-05T04:08:48;101510.31;;;16.63;63.74
19789;BME280;10054;59.332;18.244;2023-06-05T04:11:19;101509.59;;;16.79;63.09
19789;BME280;10054;59.332;18.244;2023-06-05T04:13:48;101503.22;;;16.93;63.22
19789;BME280;10054;59.332;18.244;2023-06-05T04:16:17;101501.55;;;17.08;62.16
19789;BME280;10054;59.332;18.244;2023-06-05T04:18:46;101498.44;;;17.20;61.54
19789;BME280;10054;59.332;18.244;2023-06-05T04:21:16;101495.20;;;17.33;61.91
19789;BME280;10054;59.332;18.244;2023-06-05T04:23:45;101495.59;;;17.46;61.12
19789;BME280;10054;59.332;18.244;2023-06-05T04:26:14;101497.06;;;17.61;60.53
19789;BME280;10054;59.332;18.244;2023-06-05T04:28:44;101497.72;;;17.76;60.40
19789;BME280;10054;59.332;18.244;2023-06-05T04:31:14;101499.63;;;17.90;59.96
19789;BME280;10054;59.332;18.244;2023-06-05T04:33:43;101497.20;;;18.04;59.55
19789;BME280;10054;59.332;18.244;2023-06-05T04:36:13;101501.31;;;18.19;58.74
19789;BME280;10054;59.332;18.244;2023-06-05T04:38:41;101499.96;;;18.30;58.11
19789;BME280;10054;59.332;18.244;2023-06-05T04:41:10;101502.61;;;18.42;57.78
19789;BME280;10054;59.332;18.244;2023-06-05T04:43:39;101504.03;;;18.57;57.22
19789;BME280;10054;59.332;18.244;2023-06-05T04:46:09;101498.66;;;18.68;56.72
19789;BME280;10054;59.332;18.244;2023-06-05T04:48:37;101502.27;;;18.78;56.43
19789;BME280;10054;59.332;18.244;2023-06-05T04:51:07;101500.63;;;18.92;56.08
19789;BME280;10054;59.332;18.244;2023-06-05T04:53:35;101494.25;;;19.04;55.27
19789;BME280;10054;59.332;18.244;2023-06-05T04:56:05;101491.52;;;19.16;54.72
19789;BME280;10054;59.332;18.244;2023-06-05T04:58:34;101492.93;;;19.25;54.33
19789;BME280;10054;59.332;18.244;2023-06-05T05:01:03;101490.61;;;19.42;53.90
19789;BME280;10054;59.332;18.244;2023-06-05T05:03:33;101496.77;;;19.53;53.27
19789;BME280;10054;59.332;18.244;2023-06-05T05:06:03;101493.42;;;19.61;53.17
19789;BME280;10054;59.332;18.244;2023-06-05T05:08:33;101497.41;;;19.66;52.94
19789;BME280;10054;59.332;18.244;2023-06-05T05:11:03;101498.20;;;19.73;52.85
19789;BME280;10054;59.332;18.244;2023-06-05T05:13:33;101493.75;;;19.83;52.49
19789;BME280;10054;59.332;18.244;2023-06-05T05:16:01;101490.94;;;19.84;51.74
19789;BME280;10054;59.332;18.244;2023-06-05T05:18:30;101495.53;;;19.88;51.50
19789;BME280;10054;59.332;18.244;2023-06-05T05:20:59;101492.01;;;19.87;51.33
19789;BME280;10054;59.332;18.244;2023-06-05T05:23:29;101492.31;;;19.94;51.22
19789;BME280;10054;59.332;18.244;2023-06-05T05:25:58;101492.84;;;20.03;51.39
19789;BME280;10054;59.332;18.244;2023-06-05T05:28:33;101492.00;;;20.12;50.40
19789;BME280;10054;59.332;18.244;2023-06-05T05:30:57;101488.20;;;20.15;50.63
19789;BME280;10054;59.332;18.244;2023-06-05T05:33:26;101491.31;;;20.20;50.49
19789;BME280;10054;59.332;18.244;2023-06-05T05:35:55;101486.03;;;20.24;50.32
19789;BME280;10054;59.332;18.244;2023-06-05T05:38:24;101489.38;;;20.31;50.21
19789;BME280;10054;59.332;18.244;2023-06-05T05:40:53;101482.86;;;20.40;49.76
19789;BME280;10054;59.332;18.244;2023-06-05T05:43:22;101480.83;;;20.47;49.42
19789;BME280;10054;59.332;18.244;2023-06-05T05:45:51;101485.91;;;20.50;49.50
19789;BME280;10054;59.332;18.244;2023-06-05T05:48:20;101484.37;;;20.57;48.94
19789;BME280;10054;59.332;18.244;2023-06-05T05:50:50;101483.11;;;20.71;49.12
19789;BME280;10054;59.332;18.244;2023-06-05T05:53:19;101482.55;;;20.77;47.98
19789;BME280;10054;59.332;18.244;2023-06-05T05:55:48;101482.95;;;20.82;47.79
19789;BME280;10054;59.332;18.244;2023-06-05T05:58:17;101479.42;;;20.91;47.07
19789;BME280;10054;59.332;18.244;2023-06-05T06:00:46;101479.98;;;20.95;47.07
19789;BME280;10054;59.332;18.244;2023-06-05T06:03:16;101480.83;;;20.95;46.50
19789;BME280;10054;59.332;18.244;2023-06-05T06:05:45;101481.74;;;21.00;46.34
19789;BME280;10054;59.332;18.244;2023-06-05T06:08:15;101482.94;;;21.11;46.16
19789;BME280;10054;59.332;18.244;2023-06-05T06:10:44;101480.68;;;21.07;45.85
19789;BME280;10054;59.332;18.244;2023-06-05T06:13:13;101484.63;;;21.03;44.82
19789;BME280;10054;59.332;18.244;2023-06-05T06:15:42;101487.87;;;21.06;45.15
19789;BME280;10054;59.332;18.244;2023-06-05T06:18:11;101494.80;;;21.09;45.09
19789;BME280;10054;59.332;18.244;2023-06-05T06:20:40;101492.75;;;21.07;44.48
19789;BME280;10054;59.332;18.244;2023-06-05T06:23:10;101497.20;;;21.12;44.92
19789;BME280;10054;59.332;18.244;2023-06-05T06:25:57;101494.79;;;21.18;44.39
19789;BME280;10054;59.332;18.244;2023-06-05T06:28:27;101491.06;;;21.25;45.02
19789;BME280;10054;59.332;18.244;2023-06-05T06:30:56;101492.05;;;21.34;44.94
19789;BME280;10054;59.332;18.244;2023-06-05T06:33:25;101489.56;;;21.36;44.51
19789;BME280;10054;59.332;18.244;2023-06-05T06:35:53;101484.32;;;21.44;44.59
19789;BME280;10054;59.332;18.244;2023-06-05T06:38:27;101488.76;;;21.49;44.72
19789;BME280;10054;59.332;18.244;2023-06-05T06:40:58;101489.66;;;21.54;44.50
19789;BME280;10054;59.332;18.244;2023-06-05T06:43:26;101485.93;;;21.64;44.75
19789;BME280;10054;59.332;18.244;2023-06-05T06:46:00;101488.28;;;21.77;44.32
19789;BME280;10054;59.332;18.244;2023-06-05T06:48:29;101488.38;;;21.72;43.98
19789;BME280;10054;59.332;18.244;2023-06-05T06:50:57;101488.97;;;21.65;44.19
19789;BME280;10054;59.332;18.244;2023-06-05T06:53:26;101484.17;;;21.46;44.24
19789;BME280;10054;59.332;18.244;2023-06-05T06:55:55;101487.87;;;21.35;44.85
19789;BME280;10054;59.332;18.244;2023-06-05T06:58:24;101486.27;;;21.28;45.03
19789;BME280;10054;59.332;18.244;2023-06-05T07:00:54;101488.03;;;21.24;45.23
19789;BME280;10054;59.332;18.244;2023-06-05T07:03:22;101486.69;;;21.24;45.60
19789;BME280;10054;59.332;18.244;2023-06-05T07:05:51;101488.88;;;21.24;45.51
19789;BME280;10054;59.332;18.244;2023-06-05T07:08:20;101485.06;;;21.27;44.94
19789;BME280;10054;59.332;18.244;2023-06-05T07:10:50;101479.70;;;21.27;45.11
19789;BME280;10054;59.332;18.244;2023-06-05T07:13:21;101482.03;;;21.26;44.81
19789;BME280;10054;59.332;18.244;2023-06-05T07:15:51;101478.56;;;21.29;44.45
19789;BME280;10054;59.332;18.244;2023-06-05T07:18:20;101474.10;;;21.34;44.15
19789;BME280;10054;59.332;18.244;2023-06-05T07:20:49;101469.06;;;21.45;43.75
19789;BME280;10054;59.332;18.244;2023-06-05T07:23:17;101472.36;;;21.52;43.22
19789;BME280;10054;59.332;18.244;2023-06-05T07:25:46;101475.92;;;21.57;43.00
19789;BME280;10054;59.332;18.244;2023-06-05T07:28:15;101472.30;;;21.62;42.69
19789;BME280;10054;59.332;18.244;2023-06-05T07:30:44;101461.61;;;21.66;42.61
19789;BME280;10054;59.332;18.244;2023-06-05T07:33:12;101467.94;;;21.75;42.48
19789;BME280;10054;59.332;18.244;2023-06-05T07:35:42;101466.56;;;21.84;42.10
19789;BME280;10054;59.332;18.244;2023-06-05T07:38:12;101470.05;;;21.94;42.02
19789;BME280;10054;59.332;18.244;2023-06-05T07:40:41;101470.03;;;22.04;41.63
19789;BME280;10054;59.332;18.244;2023-06-05T07:43:10;101475.70;;;22.15;41.37
19789;BME280;10054;59.332;18.244;2023-06-05T07:45:40;101471.37;;;22.18;40.89
19789;BME280;10054;59.332;18.244;2023-06-05T07:48:09;101469.27;;;22.25;40.86
19789;BME280;10054;59.332;18.244;2023-06-05T07:50:38;101465.80;;;22.33;40.85
19789;BME280;10054;59.332;18.244;2023-06-05T07:53:08;101471.37;;;22.36;40.58
19789;BME280;10054;59.332;18.244;2023-06-05T07:55:37;101467.84;;;22.35;40.29
19789;BME280;10054;59.332;18.244;2023-06-05T07:58:05;101464.20;;;22.40;40.50
19789;BME280;10054;59.332;18.244;2023-06-05T08:00:34;101462.24;;;22.46;40.40
19789;BME280;10054;59.332;18.244;2023-06-05T08:03:04;101462.62;;;22.51;40.10
19789;BME280;10054;59.332;18.244;2023-06-05T08:05:33;101463.28;;;22.49;39.48
19789;BME280;10054;59.332;18.244;2023-06-05T08:08:03;101460.09;;;22.50;39.49
19789;BME280;10054;59.332;18.244;2023-06-05T08:10:32;101458.41;;;22.49;39.18
19789;BME280;10054;59.332;18.244;2023-06-05T08:13:01;101458.45;;;22.53;39.12
19789;BME280;10054;59.332;18.244;2023-06-05T08:15:30;101460.37;;;22.60;39.11
19789;BME280;10054;59.332;18.244;2023-06-05T08:17:59;101458.18;;;22.60;38.73
19789;BME280;10054;59.332;18.244;2023-06-05T08:20:28;101451.00;;;22.65;39.15
19789;BME280;10054;59.332;18.244;2023-06-05T08:22:57;101454.26;;;22.72;39.32
19789;BME280;10054;59.332;18.244;2023-06-05T08:25:26;101454.02;;;22.79;39.06
19789;BME280;10054;59.332;18.244;2023-06-05T08:27:55;101444.30;;;22.82;38.78
19789;BME280;10054;59.332;18.244;2023-06-05T08:30:24;101443.26;;;22.79;38.27
19789;BME280;10054;59.332;18.244;2023-06-05T08:32:54;101443.80;;;22.83;38.44
19789;BME280;10054;59.332;18.244;2023-06-05T08:35:22;101446.83;;;22.84;38.32
19789;BME280;10054;59.332;18.244;2023-06-05T08:37:51;101439.25;;;22.83;38.33
19789;BME280;10054;59.332;18.244;2023-06-05T08:40:20;101442.33;;;22.88;38.33
19789;BME280;10054;59.332;18.244;2023-06-05T08:42:50;101433.59;;;22.90;38.50
19789;BME280;10054;59.332;18.244;2023-06-05T08:45:20;101441.20;;;22.95;38.63
19789;BME280;10054;59.332;18.244;2023-06-05T08:47:50;101434.63;;;22.93;38.65
19789;BME280;10054;59.332;18.244;2023-06-05T08:50:19;101433.47;;;22.96;38.69
19789;BME280;10054;59.332;18.244;2023-06-05T08:52:49;101430.13;;;22.98;38.78
19789;BME280;10054;59.332;18.244;2023-06-05T08:55:19;101425.80;;;23.09;38.92
19789;BME280;10054;59.332;18.244;2023-06-05T08:57:48;101427.20;;;23.17;39.19
19789;BME280;10054;59.332;18.244;2023-06-05T09:00:18;101425.20;;;23.19;38.80
19789;BME280;10054;59.332;18.244;2023-06-05T09:02:47;101426.41;;;23.25;38.75
19789;BME280;10054;59.332;18.244;2023-06-05T09:05:16;101415.67;;;23.29;38.41
19789;BME280;10054;59.332;18.244;2023-06-05T09:07:45;101416.06;;;23.38;38.51
19789;BME280;10054;59.332;18.244;2023-06-05T09:10:27;101412.20;;;23.41;38.50
19789;BME280;10054;59.332;18.244;2023-06-05T09:13:01;101423.02;;;23.49;38.58
19789;BME280;10054;59.332;18.244;2023-06-05T09:15:32;101412.14;;;23.54;38.22
19789;BME280;10054;59.332;18.244;2023-06-05T09:18:12;101413.69;;;23.61;38.35
19789;BME280;10054;59.332;18.244;2023-06-05T09:20:44;101414.02;;;23.58;38.07
19789;BME280;10054;59.332;18.244;2023-06-05T09:23:28;101410.02;;;23.66;38.25
19789;BME280;10054;59.332;18.244;2023-06-05T09:25:58;101409.53;;;23.71;37.26
19789;BME280;10054;59.332;18.244;2023-06-05T09:28:29;101408.34;;;23.77;37.87
19789;BME280;10054;59.332;18.244;2023-06-05T09:31:02;101405.83;;;23.80;37.85
19789;BME280;10054;59.332;18.244;2023-06-05T09:33:32;101399.94;;;23.80;37.40
19789;BME280;10054;59.332;18.244;2023-06-05T09:36:03;101397.45;;;23.91;37.71
19789;BME280;10054;59.332;18.244;2023-06-05T09:38:33;101396.80;;;23.97;37.48
19789;BME280;10054;59.332;18.244;2023-06-05T09:43:34;101383.31;;;23.97;36.78
19789;BME280;10054;59.332;18.244;2023-06-05T09:46:14;101386.86;;;23.98;37.32
19789;BME280;10054;59.332;18.244;2023-06-05T09:48:49;101384.17;;;24.02;37.35
19789;BME280;10054;59.332;18.244;2023-06-05T09:51:16;101378.79;;;24.06;37.32
19789;BME280;10054;59.332;18.244;2023-06-05T09:53:49;101381.50;;;24.10;36.52
19789;BME280;10054;59.332;18.244;2023-06-05T09:56:20;101380.33;;;24.12;36.76
19789;BME280;10054;59.332;18.244;2023-06-05T09:58:51;101371.91;;;24.19;36.90
19789;BME280;10054;59.332;18.244;2023-06-05T10:01:26;101372.75;;;24.16;36.41
19789;BME280;10054;59.332;18.244;2023-06-05T10:03:59;101364.84;;;24.22;36.39
19789;BME280;10054;59.332;18.244;2023-06-05T10:06:28;101365.22;;;24.36;35.80
19789;BME280;10054;59.332;18.244;2023-06-05T10:08:58;101364.38;;;24.39;36.14
19789;BME280;10054;59.332;18.244;2023-06-05T10:11:28;101362.70;;;24.50;36.63
19789;BME280;10054;59.332;18.244;2023-06-05T10:13:57;101358.28;;;24.62;36.04
19789;BME280;10054;59.332;18.244;2023-06-05T10:16:27;101358.12;;;24.67;35.54
19789;BME280;10054;59.332;18.244;2023-06-05T10:18:57;101363.17;;;24.74;35.68
19789;BME280;10054;59.332;18.244;2023-06-05T10:21:26;101359.29;;;24.77;35.30
19789;BME280;10054;59.332;18.244;2023-06-05T10:24:10;101354.90;;;24.80;35.52
19789;BME280;10054;59.332;18.244;2023-06-05T10:27:04;101354.38;;;24.88;35.30
19789;BME280;10054;59.332;18.244;2023-06-05T10:35:24;101352.72;;;24.71;33.71
19789;BME280;10054;59.332;18.244;2023-06-05T10:38:11;101345.63;;;24.82;34.21
19789;BME280;10054;59.332;18.244;2023-06-05T10:40:37;101346.28;;;24.93;33.30
19789;BME280;10054;59.332;18.244;2023-06-05T10:43:25;101340.21;;;25.07;33.36
19789;BME280;10054;59.332;18.244;2023-06-05T10:45:56;101337.34;;;25.04;33.35
19789;BME280;10054;59.332;18.244;2023-06-05T10:51:43;101341.05;;;25.07;33.31
19789;BME280;10054;59.332;18.244;2023-06-05T10:56:58;101330.84;;;25.26;33.34
19789;BME280;10054;59.332;18.244;2023-06-05T10:59:32;101333.84;;;25.35;33.31
19789;BME280;10054;59.332;18.244;2023-06-05T11:07:28;101329.56;;;25.48;32.74
19789;BME280;10054;59.332;18.244;2023-06-05T11:15:09;101322.75;;;25.69;32.27
19789;BME280;10054;59.332;18.244;2023-06-05T11:17:39;101317.65;;;25.74;32.50
19789;BME280;10054;59.332;18.244;2023-06-05T11:25:29;101314.02;;;26.08;32.93
19789;BME280;10054;59.332;18.244;2023-06-05T11:28:04;101314.02;;;26.08;32.70
19789;BME280;10054;59.332;18.244;2023-06-05T11:30:42;101312.70;;;26.04;32.63
19789;BME280;10054;59.332;18.244;2023-06-05T11:33:13;101316.53;;;25.91;32.56
19789;BME280;10054;59.332;18.244;2023-06-05T11:35:43;101311.60;;;25.68;32.75
19789;BME280;10054;59.332;18.244;2023-06-05T11:38:20;101312.00;;;25.48;33.16
19789;BME280;10054;59.332;18.244;2023-06-05T11:40:50;101306.23;;;25.25;33.09
19789;BME280;10054;59.332;18.244;2023-06-05T11:43:20;101306.11;;;25.10;33.38
19789;BME280;10054;59.332;18.244;2023-06-05T11:45:54;101305.78;;;25.09;33.88
19789;BME280;10054;59.332;18.244;2023-06-05T11:48:23;101300.38;;;25.09;33.81
19789;BME280;10054;59.332;18.244;2023-06-05T11:51:01;101301.22;;;25.09;33.42
19789;BME280;10054;59.332;18.244;2023-06-05T11:53:32;101299.70;;;25.11;33.59
19789;BME280;10054;59.332;18.244;2023-06-05T11:56:01;101297.98;;;25.18;33.55
19789;BME280;10054;59.332;18.244;2023-06-05T11:58:39;101289.98;;;25.29;33.43
19789;BME280;10054;59.332;18.244;2023-06-05T12:01:14;101287.20;;;25.45;33.35
19789;BME280;10054;59.332;18.244;2023-06-05T12:03:45;101295.38;;;25.64;33.04
19789;BME280;10054;59.332;18.244;2023-06-05T12:06:16;101293.63;;;25.79;33.06
19789;BME280;10054;59.332;18.244;2023-06-05T12:08:45;101281.23;;;25.89;32.73
19789;BME280;10054;59.332;18.244;2023-06-05T12:11:25;101285.75;;;25.69;32.32
19789;BME280;10054;59.332;18.244;2023-06-05T12:13:58;101278.32;;;25.63;32.92
19789;BME280;10054;59.332;18.244;2023-06-05T12:16:34;101274.80;;;25.59;32.96
19789;BME280;10054;59.332;18.244;2023-06-05T12:19:17;101275.84;;;25.53;33.28
19789;BME280;10054;59.332;18.244;2023-06-05T12:21:50;101270.58;;;25.60;33.58
19789;BME280;10054;59.332;18.244;2023-06-05T12:24:26;101268.70;;;25.69;33.16
19789;BME280;10054;59.332;18.244;2023-06-05T12:27:02;101262.22;;;25.78;32.98
19789;BME280;10054;59.332;18.244;2023-06-05T12:29:37;101258.80;;;25.84;32.41
19789;BME280;10054;59.332;18.244;2023-06-05T12:32:23;101263.45;;;25.94;32.98
19789;BME280;10054;59.332;18.244;2023-06-05T12:34:52;101252.88;;;26.03;33.03
19789;BME280;10054;59.332;18.244;2023-06-05T12:37:23;101254.34;;;26.10;32.73
19789;BME280;10054;59.332;18.244;2023-06-05T12:39:54;101250.08;;;26.15;32.65
19789;BME280;10054;59.332;18.244;2023-06-05T12:42:22;101249.92;;;26.13;32.65
19789;BME280;10054;59.332;18.244;2023-06-05T12:44:51;101249.45;;;26.09;32.89
19789;BME280;10054;59.332;18.244;2023-06-05T12:47:20;101250.02;;;26.01;32.81
19789;BME280;10054;59.332;18.244;2023-06-05T12:49:49;101248.38;;;26.00;32.65
19789;BME280;10054;59.332;18.244;2023-06-05T12:52:19;101238.00;;;26.03;32.79
19789;BME280;10054;59.332;18.244;2023-06-05T12:54:49;101245.45;;;26.01;32.85
19789;BME280;10054;59.332;18.244;2023-06-05T12:57:17;101252.09;;;25.99;33.33
19789;BME280;10054;59.332;18.244;2023-06-05T12:59:51;101251.83;;;25.90;33.95
19789;BME280;10054;59.332;18.244;2023-06-05T13:02:20;101248.52;;;25.79;34.33
19789;BME280;10054;59.332;18.244;2023-06-05T13:04:49;101247.44;;;25.66;34.86
19789;BME280;10054;59.332;18.244;2023-06-05T13:07:18;101256.06;;;25.57;35.22
19789;BME280;10054;59.332;18.244;2023-06-05T13:09:48;101239.55;;;25.52;35.33
19789;BME280;10054;59.332;18.244;2023-06-05T13:12:19;101247.63;;;25.56;35.42
19789;BME280;10054;59.332;18.244;2023-06-05T13:14:48;101247.32;;;25.51;35.32
19789;BME280;10054;59.332;18.244;2023-06-05T13:17:17;101244.51;;;25.40;35.38
19789;BME280;10054;59.332;18.244;2023-06-05T13:19:46;101234.78;;;25.27;35.48
19789;BME280;10054;59.332;18.244;2023-06-05T13:22:14;101232.47;;;25.24;35.80
19789;BME280;10054;59.332;18.244;2023-06-05T13:24:43;101235.62;;;25.28;35.58
19789;BME280;10054;59.332;18.244;2023-06-05T13:27:13;101231.13;;;25.24;35.57
19789;BME280;10054;59.332;18.244;2023-06-05T13:29:44;101229.97;;;25.18;35.51